Time;durP1;ratioP1;P1;durP2;ratioP2;P2;SDS_P1;SDS_P2;PMS_P1;PMS_P2;Temp;Humidity;BMP_temperature;BMP_pressure;BME280_temperature;BME280_humidity;BME280_pressure;Samples;Min_cycle;Max_cycle;Signal;HPM_P1;HPM_P2
2024/04/19 00:02:20;;;;;;;4.80;2.20;;;;;;;8.36;71.75;97457.83;109255;1257;73834;-29
2024/04/19 00:04:48;;;;;;;3.20;2.50;;;;;;;8.19;72.25;97459.25;109116;1257;73066;-28
2024/04/19 00:07:15;;;;;;;6.20;2.90;;;;;;;7.93;73.47;97454.72;109235;1257;72694;-29
2024/04/19 00:09:43;;;;;;;3.80;2.60;;;;;;;7.84;74.04;97458.66;109089;1257;60388;-28
2024/04/19 00:12:11;;;;;;;4.30;3.10;;;;;;;8.17;73.03;97464.31;109047;1256;58835;-29
2024/04/19 00:14:38;;;;;;;2.50;2.30;;;;;;;8.06;73.40;97466.05;109068;1257;71879;-29
2024/04/19 00:17:06;;;;;;;3.10;2.60;;;;;;;8.09;72.97;97458.86;109030;1257;74789;-29
2024/04/19 00:19:33;;;;;;;3.40;2.70;;;;;;;7.74;74.33;97460.63;109018;1257;72797;-29
2024/04/19 00:22:00;;;;;;;5.70;3.10;;;;;;;7.64;74.85;97460.83;109031;1257;60387;-29
2024/04/19 00:24:28;;;;;;;3.30;2.70;;;;;;;7.79;74.56;97466.17;109027;1257;58812;-29
2024/04/19 00:26:55;;;;;;;3.50;2.50;;;;;;;8.27;72.93;97471.66;109044;1257;73884;-28
2024/04/19 00:29:44;;;;;;;4.50;2.80;;;;;;;8.09;72.61;97459.52;109097;1257;74409;-29
2024/04/19 00:32:11;;;;;;;3.10;2.30;;;;;;;7.84;73.36;97463.69;108976;1264;71461;-28
2024/04/19 00:34:38;;;;;;;2.70;2.20;;;;;;;7.68;74.19;97476.38;109033;1257;60031;-28
2024/04/19 00:37:06;;;;;;;4.60;2.80;;;;;;;7.96;73.88;97482.23;109031;1257;60052;-28
2024/04/19 00:39:33;;;;;;;3.60;2.80;;;;;;;8.17;72.28;97475.73;109032;1257;73921;-30
2024/04/19 00:42:01;;;;;;;3.90;2.30;;;;;;;8.13;72.37;97478.71;109039;1257;74475;-29
2024/04/19 00:44:30;;;;;;;3.90;2.60;;;;;;;8.24;71.83;97480.63;109094;1257;72666;-29
2024/04/19 00:47:01;;;;;;;3.10;2.60;;;;;;;7.81;72.94;97473.77;108967;1257;60200;-29
2024/04/19 00:49:29;;;;;;;2.80;2.50;;;;;;;7.62;74.16;97481.59;109009;1257;59126;-29
2024/04/19 00:51:57;;;;;;;3.10;2.80;;;;;;;7.97;73.29;97486.02;109005;1257;72554;-28
2024/04/19 00:54:24;;;;;;;5.20;2.90;;;;;;;8.24;71.80;97479.39;109102;1257;74238;-28
2024/04/19 00:56:52;;;;;;;3.60;2.80;;;;;;;8.01;72.56;97484.33;109031;1257;72617;-29
2024/04/19 00:59:19;;;;;;;4.20;3.00;;;;;;;8.02;73.07;97488.59;108996;1259;58880;-29
2024/04/19 01:01:46;;;;;;;4.40;2.60;;;;;;;7.84;73.52;97484.73;109039;1257;60023;-29
2024/04/19 01:04:15;;;;;;;5.20;3.10;;;;;;;7.99;73.18;97483.63;109079;1257;72692;-28
2024/04/19 01:06:42;;;;;;;4.20;3.20;;;;;;;8.34;71.38;97486.84;109080;1257;74306;-29
2024/04/19 01:09:10;;;;;;;3.50;3.10;;;;;;;8.46;70.48;97479.80;108994;1257;70480;-29
2024/04/19 01:11:37;;;;;;;3.60;2.90;;;;;;;8.25;70.97;97489.94;109033;1260;59095;-29
2024/04/19 01:14:05;;;;;;;3.70;3.20;;;;;;;8.13;71.18;97488.17;109021;1257;60045;-29
2024/04/19 01:16:32;;;;;;;4.90;3.30;;;;;;;7.91;71.95;97482.45;109093;1258;72590;-28
2024/04/19 01:18:59;;;;;;;4.40;3.40;;;;;;;8.08;71.87;97487.81;109047;1257;74430;-28
2024/04/19 01:21:27;;;;;;;3.90;2.60;;;;;;;8.30;70.64;97481.94;109092;1257;71381;-29
2024/04/19 01:24:06;;;;;;;3.50;2.90;;;;;;;8.31;70.22;97487.84;108965;1258;60190;-29
2024/04/19 01:26:33;;;;;;;2.40;2.20;;;;;;;7.97;71.40;97489.70;109011;1257;58718;-29
2024/04/19 01:29:01;;;;;;;2.90;2.40;;;;;;;7.84;72.02;97495.45;109112;1256;72613;-29
2024/04/19 01:31:28;;;;;;;3.40;2.60;;;;;;;7.72;72.59;97497.74;109085;1257;74313;-29
2024/04/19 01:33:55;;;;;;;6.10;3.00;;;;;;;7.97;71.48;97490.56;109092;1257;70380;-28
2024/04/19 01:36:23;;;;;;;5.90;2.80;;;;;;;8.16;70.63;97500.90;109024;1257;60094;-29
2024/04/19 01:38:50;;;;;;;3.80;2.80;;;;;;;8.24;70.47;97500.45;109085;1256;60056;-29
2024/04/19 01:41:18;;;;;;;2.90;2.30;;;;;;;7.98;71.06;97503.06;109050;1262;73795;-29
2024/04/19 01:43:45;;;;;;;4.90;3.70;;;;;;;7.87;71.37;97508.13;109047;1257;74401;-29
2024/04/19 01:46:12;;;;;;;2.90;2.60;;;;;;;7.92;71.45;97506.77;109080;1257;72739;-29
2024/04/19 01:48:40;;;;;;;4.30;2.70;;;;;;;8.22;70.15;97507.67;109090;1260;60468;-29
2024/04/19 01:51:07;;;;;;;3.40;2.80;;;;;;;8.38;69.38;97507.75;109122;1258;59986;-29
2024/04/19 01:53:34;;;;;;;3.80;3.20;;;;;;;8.08;70.07;97504.20;109290;1254;73854;-29
2024/04/19 01:56:02;;;;;;;3.20;2.80;;;;;;;7.87;70.52;97510.36;109426;1254;73203;-28
2024/04/19 01:58:41;;;;;;;4.40;2.60;;;;;;;7.68;71.22;97509.58;109402;1254;71402;-30
2024/04/19 02:01:09;;;;;;;3.90;2.50;;;;;;;7.93;70.60;97515.46;109424;1254;58842;-29
2024/04/19 02:03:39;;;;;;;3.30;3.00;;;;;;;8.10;69.56;97514.91;109430;1259;58668;-29
2024/04/19 02:06:08;;;;;;;2.50;2.10;;;;;;;8.05;69.99;97518.48;109181;1254;73836;-29
2024/04/19 02:08:35;;;;;;;2.70;2.40;;;;;;;7.85;70.41;97519.19;109299;1256;73105;-29
2024/04/19 02:11:03;;;;;;;3.80;2.50;;;;;;;7.80;70.49;97521.38;109239;1257;72724;-29
2024/04/19 02:13:31;;;;;;;3.40;2.60;;;;;;;7.64;70.74;97512.50;109121;1254;60523;-29
2024/04/19 02:15:58;;;;;;;2.50;2.30;;;;;;;7.95;69.24;97513.21;109393;1256;58787;-29
2024/04/19 02:18:26;;;;;;;4.40;2.50;;;;;;;8.17;68.42;97523.38;109119;1256;73853;-29
2024/04/19 02:20:54;;;;;;;3.10;2.80;;;;;;;8.08;68.59;97530.86;109115;1255;74450;-29
2024/04/19 02:23:36;;;;;;;3.40;2.20;;;;;;;7.76;69.44;97520.16;109231;1259;71827;-29
2024/04/19 02:26:04;;;;;;;3.30;2.90;;;;;;;7.62;70.18;97525.08;109149;1256;58913;-28
2024/04/19 02:31:18;;;;;;;3.10;2.60;;;;;;;8.03;68.69;97532.36;109279;1254;74619;-29
2024/04/19 02:33:46;;;;;;;3.10;2.10;;;;;;;7.72;69.48;97529.05;109259;1254;74348;-28
2024/04/19 02:36:13;;;;;;;11.80;2.30;;;;;;;7.75;69.79;97544.47;109251;1254;71782;-29
2024/04/19 02:38:41;;;;;;;3.50;2.70;;;;;;;7.68;69.70;97534.80;109125;1257;58937;-29
2024/04/19 02:41:08;;;;;;;5.30;2.80;;;;;;;7.46;70.70;97538.67;109387;1259;60098;-29
2024/04/19 02:43:36;;;;;;;4.00;2.50;;;;;;;7.80;69.42;97541.27;109284;1254;74658;-28
2024/04/19 02:46:06;;;;;;;2.40;1.90;;;;;;;7.73;68.94;97540.02;109121;1254;74460;-28
2024/04/19 02:48:34;;;;;;;2.20;1.90;;;;;;;7.69;68.65;97543.14;109105;1254;72898;-28
2024/04/19 02:51:02;;;;;;;1.90;1.80;;;;;;;7.56;69.53;97551.59;109131;1254;58949;-29
2024/04/19 02:53:33;;;;;;;2.30;2.10;;;;;;;7.36;70.28;97543.73;109265;1254;60072;-28
2024/04/19 02:56:01;;;;;;;5.90;2.70;;;;;;;7.54;69.46;97546.42;109407;1254;74667;-28
2024/04/19 02:58:29;;;;;;;2.90;2.30;;;;;;;7.40;69.50;97559.64;109141;1254;73302;-28
2024/04/19 03:00:56;;;;;;;2.60;2.40;;;;;;;7.67;68.72;97565.41;109243;1254;70459;-28
2024/04/19 03:03:24;;;;;;;2.20;1.80;;;;;;;7.79;68.32;97570.71;109391;1254;58960;-29
2024/04/19 03:05:54;;;;;;;2.20;2.00;;;;;;;7.24;69.76;97559.81;109387;1254;59993;-28
2024/04/19 03:08:22;;;;;;;3.90;2.10;;;;;;;7.19;70.24;97572.23;109346;1257;74650;-28
2024/04/19 03:10:49;;;;;;;3.70;2.40;;;;;;;7.68;68.34;97567.77;109124;1258;74424;-28
2024/04/19 03:13:17;;;;;;;2.80;1.80;;;;;;;7.36;69.08;97570.17;109178;1256;72702;-29
2024/04/19 03:15:44;;;;;;;2.90;2.20;;;;;;;7.51;68.68;97578.15;109367;1254;58971;-33
2024/04/19 03:18:31;;;;;;;7.20;2.50;;;;;;;7.36;69.10;97573.48;109362;1254;60187;-28
2024/04/19 03:21:01;;;;;;;3.00;2.10;;;;;;;7.12;69.98;97582.83;109246;1256;74669;-29
2024/04/19 03:23:29;;;;;;;4.70;2.30;;;;;;;7.28;69.38;97582.46;109375;1256;74491;-28
2024/04/19 03:25:57;;;;;;;3.30;2.40;;;;;;;7.57;68.15;97580.16;109237;1260;72681;-29
2024/04/19 03:28:24;;;;;;;2.80;1.80;;;;;;;7.52;67.78;97582.31;109059;1257;60214;-29
2024/04/19 03:30:52;;;;;;;2.60;2.00;;;;;;;7.38;67.87;97571.83;109199;1257;60288;-29
2024/04/19 03:33:19;;;;;;;2.30;1.90;;;;;;;7.29;68.53;97580.98;109161;1255;74691;-29
2024/04/19 03:35:47;;;;;;;2.40;1.90;;;;;;;7.13;68.83;97584.29;109285;1257;73501;-28
2024/04/19 03:38:14;;;;;;;2.40;1.80;;;;;;;7.38;68.30;97594.35;109213;1256;72732;-29
2024/04/19 03:40:52;;;;;;;2.50;2.30;;;;;;;7.67;66.62;97589.23;109267;1257;60017;-29
2024/04/19 03:43:21;;;;;;;2.80;2.20;;;;;;;7.26;67.62;97591.44;109111;1257;58868;-28
2024/04/19 03:45:48;;;;;;;3.00;2.30;;;;;;;7.45;67.33;97598.72;109408;1254;73028;-28
2024/04/19 03:48:16;;;;;;;2.50;2.00;;;;;;;7.17;68.06;97592.93;109179;1256;74363;-28
2024/04/19 03:50:46;;;;;;;3.00;1.70;;;;;;;6.99;69.02;97610.05;109399;1255;71470;-28
2024/04/19 03:53:13;;;;;;;2.50;2.00;;;;;;;7.37;67.79;97608.55;109239;1256;58953;-28
2024/04/19 03:55:41;;;;;;;2.40;1.90;;;;;;;7.39;67.61;97604.78;109301;1256;59026;-29
2024/04/19 03:58:09;;;;;;;2.30;1.90;;;;;;;7.32;68.13;97617.62;109278;1257;74736;-28
2024/04/19 04:00:39;;;;;;;2.60;2.30;;;;;;;7.19;68.03;97616.05;109290;1256;74308;-28
2024/04/19 04:03:06;;;;;;;2.60;2.20;;;;;;;6.71;69.25;97601.19;109145;1257;70435;-28
2024/04/19 04:05:38;;;;;;;2.10;1.80;;;;;;;6.91;69.25;97618.21;109256;1255;58959;-28
2024/04/19 04:08:06;;;;;;;2.00;1.80;;;;;;;7.40;67.26;97617.98;109369;1256;60247;-28
2024/04/19 04:10:35;;;;;;;2.60;2.30;;;;;;;7.21;67.35;97603.46;109127;1255;73428;-28
2024/04/19 04:13:03;;;;;;;4.10;2.00;;;;;;;7.06;67.94;97619.08;109273;1257;74418;-29
2024/04/19 04:15:31;;;;;;;1.60;1.40;;;;;;;7.12;67.90;97622.91;109060;1257;72714;-28
2024/04/19 04:18:01;;;;;;;2.70;1.80;;;;;;;6.78;68.57;97616.02;108982;1257;60986;-28
2024/04/19 04:20:30;;;;;;;1.50;1.40;;;;;;;7.14;67.60;97623.36;108993;1257;60075;-28
2024/04/19 04:22:59;;;;;;;2.20;1.60;;;;;;;7.21;66.38;97623.80;109051;1257;74668;-29
2024/04/19 04:25:26;;;;;;;3.40;1.20;;;;;;;7.18;66.11;97629.29;109032;1257;73227;-28
2024/04/19 04:27:54;;;;;;;1.80;1.30;;;;;;;6.96;66.64;97634.66;108964;1257;72678;-28
2024/04/19 04:30:21;;;;;;;2.60;1.60;;;;;;;6.87;66.90;97637.66;109077;1257;58878;-28
2024/04/19 04:32:49;;;;;;;2.40;1.10;;;;;;;6.84;67.44;97645.86;109022;1257;59130;-28
2024/04/19 04:35:16;;;;;;;1.30;1.10;;;;;;;7.13;65.97;97633.48;109085;1257;73334;-28
2024/04/19 04:37:44;;;;;;;1.50;1.10;;;;;;;7.41;64.57;97646.33;109137;1257;74423;-28
2024/04/19 04:40:11;;;;;;;1.80;1.20;;;;;;;7.33;64.73;97641.00;109008;1257;71457;-28
2024/04/19 04:42:39;;;;;;;3.60;1.30;;;;;;;7.25;65.14;97650.69;108951;1260;58927;-28
2024/04/19 04:45:06;;;;;;;1.10;1.00;;;;;;;7.07;65.37;97650.76;109119;1257;60068;-28
2024/04/19 04:47:34;;;;;;;2.00;1.30;;;;;;;6.87;65.57;97643.17;109083;1257;73343;-28
2024/04/19 04:50:02;;;;;;;1.60;1.20;;;;;;;6.85;65.74;97649.76;108979;1257;74342;-28
2024/04/19 04:52:29;;;;;;;2.40;1.40;;;;;;;7.26;64.80;97661.81;109058;1257;71917;-28
2024/04/19 04:54:57;;;;;;;1.40;1.30;;;;;;;7.29;64.04;97664.83;109080;1257;60080;-28
2024/04/19 04:57:24;;;;;;;1.50;1.10;;;;;;;7.51;63.71;97666.58;108986;1257;60176;-28
2024/04/19 04:59:52;;;;;;;1.20;1.10;;;;;;;7.37;63.85;97653.80;109101;1257;74740;-28
2024/04/19 05:02:19;;;;;;;8.20;1.20;;;;;;;7.21;64.02;97658.70;109100;1257;74504;-29
2024/04/19 05:04:47;;;;;;;1.20;1.10;;;;;;;7.16;64.11;97650.64;108975;1257;72808;-28
2024/04/19 05:07:14;;;;;;;1.10;0.80;;;;;;;7.10;64.45;97673.06;108961;1257;59382;-28
2024/04/19 05:09:43;;;;;;;1.40;1.20;;;;;;;7.36;63.79;97664.27;108987;1259;60064;-28
2024/04/19 05:12:13;;;;;;;4.40;1.80;;;;;;;7.61;61.96;97659.27;108927;1259;76025;-28
2024/04/19 05:14:43;;;;;;;4.60;1.10;;;;;;;7.81;61.66;97674.02;109078;1257;73275;-28
2024/04/19 05:17:14;;;;;;;3.00;1.30;;;;;;;7.40;62.40;97660.43;109090;1257;72496;-29
2024/04/19 05:19:44;;;;;;;1.40;1.20;;;;;;;7.14;63.20;97668.58;109069;1261;59999;-29
2024/04/19 05:22:13;;;;;;;1.40;1.10;;;;;;;7.12;63.71;97676.89;109068;1256;58884;-28
2024/04/19 05:24:46;;;;;;;2.40;1.30;;;;;;;7.05;63.79;97672.64;109125;1257;73484;-28
2024/04/19 05:27:15;;;;;;;1.20;0.90;;;;;;;7.09;64.59;97690.42;109049;1257;73290;-29
2024/04/19 05:29:45;;;;;;;1.50;1.40;;;;;;;7.56;63.35;97691.75;109119;1257;72759;-28
2024/04/19 05:32:15;;;;;;;1.00;0.90;;;;;;;7.81;61.45;97685.06;109076;1257;60105;-29
2024/04/19 05:34:46;;;;;;;1.50;1.10;;;;;;;7.63;62.07;97697.77;109141;1257;59317;-29
2024/04/19 05:37:16;;;;;;;1.70;1.20;;;;;;;7.64;62.65;97715.65;109111;1257;73808;-28
2024/04/19 05:39:47;;;;;;;1.50;1.30;;;;;;;7.33;63.25;97705.09;109122;1257;74462;-29
2024/04/19 05:42:17;;;;;;;1.80;1.30;;;;;;;7.07;63.80;97701.50;109061;1257;73668;-29
2024/04/19 05:44:47;;;;;;;3.30;1.50;;;;;;;6.92;64.33;97701.60;109061;1257;59247;-28
2024/04/19 05:47:18;;;;;;;2.00;1.30;;;;;;;6.79;65.26;97713.27;109081;1256;59808;-29
2024/04/19 05:49:48;;;;;;;1.30;1.10;;;;;;;6.88;65.22;97716.92;109119;1256;73509;-28
2024/04/19 05:52:18;;;;;;;1.40;1.30;;;;;;;7.29;64.09;97716.70;109133;1256;75421;-29
2024/04/19 05:54:48;;;;;;;1.30;1.10;;;;;;;7.51;63.17;97735.96;109244;1256;71404;-29
2024/04/19 05:57:18;;;;;;;1.80;1.40;;;;;;;7.40;63.26;97714.30;109107;1256;58880;-28
2024/04/19 05:59:48;;;;;;;0.90;0.80;;;;;;;7.46;63.89;97744.12;109107;1257;63154;-28
2024/04/19 06:02:18;;;;;;;1.70;1.30;;;;;;;7.49;63.96;97745.98;109109;1256;76761;-28
2024/04/19 06:04:48;;;;;;;1.90;1.40;;;;;;;7.19;65.05;97744.14;109092;1257;73370;-29
2024/04/19 06:07:24;;;;;;;1.70;1.20;;;;;;;7.23;65.13;97737.89;109102;1257;71825;-26
2024/04/19 06:17:28;;;;;;;2.20;1.20;;;;;;;7.92;62.64;97761.33;102567;1293;600161;-28
2024/04/19 06:19:56;;;;;;;3.50;1.80;;;;;;;7.59;63.08;97766.46;105195;1260;61229;-27
2024/04/19 06:22:23;;;;;;;1.90;1.60;;;;;;;7.63;62.69;97773.20;105126;1260;61151;-27
2024/04/19 06:24:51;;;;;;;2.80;1.40;;;;;;;7.27;62.72;97765.36;105109;1261;72411;-27
2024/04/19 06:27:18;;;;;;;1.70;0.90;;;;;;;7.25;62.88;97772.77;104753;1268;73521;-27
2024/04/19 06:29:49;;;;;;;1.70;1.30;;;;;;;7.54;61.55;97775.41;105012;1267;72180;-27
2024/04/19 06:32:17;;;;;;;1.30;0.90;;;;;;;8.16;60.91;97779.21;101561;1268;61166;-27
2024/04/19 06:34:49;;;;;;;0.90;0.70;;;;;;;8.51;60.18;97783.64;105061;1265;71884;-27
2024/04/19 06:37:16;;;;;;;1.60;1.20;;;;;;;8.35;58.80;97762.77;105091;1260;74852;-28
2024/04/19 06:39:44;;;;;;;4.80;1.40;;;;;;;8.02;60.71;97778.92;105212;1261;72195;-27
2024/04/19 06:42:28;;;;;;;2.30;1.20;;;;;;;7.80;59.75;97771.72;105186;1264;61164;-27
2024/04/19 06:44:56;;;;;;;1.40;1.20;;;;;;;8.01;60.59;97778.14;105137;1261;61096;-28
2024/04/19 06:47:23;;;;;;;3.90;1.40;;;;;;;8.08;59.55;97779.92;105126;1260;76186;-28
2024/04/19 06:49:51;;;;;;;1.00;0.90;;;;;;;7.92;59.53;97783.07;105096;1264;73471;-28
2024/04/19 06:52:18;;;;;;;2.30;1.30;;;;;;;7.64;59.70;97758.58;105231;1264;73320;-28
2024/04/19 06:54:46;;;;;;;1.10;1.00;;;;;;;7.68;60.02;97767.78;105219;1263;61112;-28
2024/04/19 06:57:14;;;;;;;2.20;1.20;;;;;;;7.93;60.43;97773.61;105290;1263;61151;-28
2024/04/19 06:59:42;;;;;;;1.70;1.00;;;;;;;8.78;57.84;97765.99;105229;1261;71861;-28
2024/04/19 07:02:11;;;;;;;2.30;1.10;;;;;;;9.13;56.61;97775.70;105261;1260;73558;-28
2024/04/19 07:04:39;;;;;;;2.90;1.40;;;;;;;9.16;56.13;97775.45;105176;1260;74896;-28
2024/04/19 07:07:07;;;;;;;2.00;1.20;;;;;;;8.53;57.09;97780.80;104953;1263;61051;-28
2024/04/19 07:09:35;;;;;;;1.70;1.10;;;;;;;8.67;56.52;97787.18;105125;1265;61218;-28
2024/04/19 07:12:03;;;;;;;1.30;1.10;;;;;;;8.43;56.76;97760.84;105091;1264;74334;-28
2024/04/19 07:14:30;;;;;;;1.30;1.10;;;;;;;8.30;56.33;97778.21;105191;1267;74699;-28
2024/04/19 07:16:58;;;;;;;2.50;1.40;;;;;;;7.93;58.02;97789.33;104991;1263;73127;-28
2024/04/19 07:19:25;;;;;;;1.50;1.10;;;;;;;7.71;59.55;97798.21;105015;1259;61096;-28
2024/04/19 07:21:53;;;;;;;2.30;1.30;;;;;;;7.64;59.96;97796.30;104967;1267;61104;-28
2024/04/19 07:24:21;;;;;;;1.60;1.30;;;;;;;7.93;59.79;97804.57;105095;1265;76083;-28
2024/04/19 07:26:49;;;;;;;1.30;1.20;;;;;;;7.78;58.70;97812.14;105805;1252;76691;-28
2024/04/19 07:29:17;;;;;;;1.50;1.20;;;;;;;7.58;58.51;97792.61;105677;1251;71856;-28
2024/04/19 07:31:44;;;;;;;1.60;1.00;;;;;;;7.40;58.58;97793.59;105857;1251;61100;-28
2024/04/19 07:34:12;;;;;;;2.40;1.20;;;;;;;7.77;59.04;97818.45;105682;1257;61150;-28
2024/04/19 07:36:40;;;;;;;1.00;0.70;;;;;;;8.09;59.67;97823.88;105691;1256;72789;-27
2024/04/19 07:39:07;;;;;;;1.70;1.00;;;;;;;8.65;56.21;97815.15;105693;1257;74972;-27
2024/04/19 07:41:35;;;;;;;5.50;1.20;;;;;;;8.78;54.69;97811.24;105676;1254;72950;-28
2024/04/19 07:44:04;;;;;;;1.40;1.00;;;;;;;8.60;54.83;97822.10;105834;1257;61106;-27
2024/04/19 07:46:31;;;;;;;1.50;1.10;;;;;;;8.49;54.75;97823.41;105746;1259;61159;-27
2024/04/19 07:48:59;;;;;;;1.30;1.00;;;;;;;8.78;56.08;97840.15;105508;1257;72712;-27
2024/04/19 07:51:27;;;;;;;1.80;1.30;;;;;;;8.93;55.39;97834.20;105767;1257;76785;-28
2024/04/19 07:53:54;;;;;;;1.40;1.20;;;;;;;8.77;55.15;97841.11;105881;1257;73107;-28
2024/04/19 07:56:22;;;;;;;5.50;1.30;;;;;;;8.67;55.85;97846.64;105885;1252;61583;-27
2024/04/19 07:58:51;;;;;;;1.30;1.10;;;;;;;8.39;56.53;97840.71;105866;1254;61162;-27
2024/04/19 08:01:18;;;;;;;2.60;1.70;;;;;;;7.80;59.00;97858.61;105692;1254;72541;-28
2024/04/19 08:03:48;;;;;;;2.70;1.70;;;;;;;7.42;58.47;97849.50;105850;1257;74618;-28
2024/04/19 08:06:16;;;;;;;5.20;1.80;;;;;;;7.33;57.93;97845.29;105911;1257;72426;-28
2024/04/19 08:08:48;;;;;;;1.60;1.10;;;;;;;7.05;58.48;97838.83;105733;1252;61559;-28
2024/04/19 08:11:16;;;;;;;1.70;1.60;;;;;;;7.16;59.73;97861.02;105887;1257;61160;-27
2024/04/19 08:13:44;;;;;;;1.70;1.30;;;;;;;7.26;59.89;97858.13;105670;1251;74478;-28
2024/04/19 08:16:11;;;;;;;1.40;1.20;;;;;;;7.80;57.12;97864.65;105695;1253;76617;-28
2024/04/19 08:18:39;;;;;;;1.60;1.20;;;;;;;7.96;56.03;97858.78;105614;1254;72799;-27
2024/04/19 08:21:06;;;;;;;0.80;0.80;;;;;;;8.00;55.77;97864.06;105809;1253;61158;-27
2024/04/19 08:23:34;;;;;;;1.10;0.90;;;;;;;8.06;55.98;97867.20;105642;1257;61084;-27
2024/04/19 08:26:01;;;;;;;3.60;1.70;;;;;;;8.19;56.46;97876.92;105834;1254;73901;-27
2024/04/19 08:28:29;;;;;;;1.50;1.00;;;;;;;8.21;57.77;97885.08;105838;1257;73933;-27
2024/04/19 08:30:56;;;;;;;1.80;1.10;;;;;;;8.57;57.20;97879.97;105830;1257;72083;-27
2024/04/19 08:33:24;;;;;;;3.50;1.60;;;;;;;8.46;56.23;97886.43;105581;1254;61175;-28
2024/04/19 08:35:56;;;;;;;1.30;1.00;;;;;;;8.35;56.51;97892.99;105886;1253;61028;-27
2024/04/19 08:38:26;;;;;;;1.90;1.10;;;;;;;8.17;56.66;97898.39;105677;1253;76001;-27
2024/04/19 08:40:59;;;;;;;1.60;1.30;;;;;;;8.01;57.20;97896.13;105871;1257;74730;-28
2024/04/19 08:43:27;;;;;;;6.40;1.30;;;;;;;7.71;57.35;97898.98;105908;1257;71630;-28
2024/04/19 08:45:56;;;;;;;1.80;1.30;;;;;;;7.70;58.73;97915.27;105957;1253;61122;-28
2024/04/19 08:48:29;;;;;;;1.30;1.20;;;;;;;7.61;58.33;97898.84;105698;1252;61054;-28
2024/04/19 08:50:58;;;;;;;1.00;0.90;;;;;;;7.52;58.95;97908.40;105745;1256;72386;-27
2024/04/19 08:53:26;;;;;;;1.50;0.90;;;;;;;8.03;57.99;97910.63;105704;1260;74742;-28
2024/04/19 08:55:54;;;;;;;3.10;1.60;;;;;;;8.47;56.37;97915.45;105790;1257;71828;-27
2024/04/19 08:58:22;;;;;;;2.90;1.30;;;;;;;8.56;56.23;97919.11;105423;1254;61432;-28
2024/04/19 09:00:49;;;;;;;2.20;2.00;;;;;;;8.58;56.54;97922.11;105777;1254;61894;-27
2024/04/19 09:03:17;;;;;;;2.80;1.70;;;;;;;8.47;56.61;97927.90;105752;1252;74012;-27
2024/04/19 09:05:45;;;;;;;1.90;1.40;;;;;;;8.07;56.73;97916.25;105701;1251;73963;-28
2024/04/19 09:08:13;;;;;;;4.30;2.00;;;;;;;7.89;56.87;97926.07;105576;1253;73120;-27
2024/04/19 09:10:40;;;;;;;1.70;1.50;;;;;;;7.61;57.61;97933.34;105646;1253;61219;-27
2024/04/19 09:13:08;;;;;;;2.50;1.90;;;;;;;7.67;57.37;97938.20;105748;1257;61087;-27
2024/04/19 09:15:37;;;;;;;1.90;1.60;;;;;;;7.65;57.73;97944.61;105702;1257;73964;-27
2024/04/19 09:18:05;;;;;;;1.70;1.40;;;;;;;7.55;57.86;97931.59;105869;1251;73543;-27
2024/04/19 09:20:33;;;;;;;2.40;2.10;;;;;;;7.49;58.57;97943.69;105850;1254;72095;-27
2024/04/19 09:23:00;;;;;;;2.20;1.70;;;;;;;7.39;59.26;97952.67;105834;1257;61246;-27
2024/04/19 09:25:28;;;;;;;3.20;1.70;;;;;;;7.74;58.73;97950.00;105858;1256;61119;-27
2024/04/19 09:27:56;;;;;;;3.60;1.60;;;;;;;8.40;57.32;97958.43;105576;1251;74889;-27
2024/04/19 09:30:24;;;;;;;2.50;2.20;;;;;;;8.95;56.24;97961.99;105770;1253;72629;-28
2024/04/19 09:32:53;;;;;;;2.20;1.90;;;;;;;8.36;55.90;97951.51;105693;1259;71705;-28
2024/04/19 09:35:24;;;;;;;3.00;1.60;;;;;;;8.26;56.08;97962.62;105795;1252;61141;-28
2024/04/19 09:37:53;;;;;;;2.60;2.00;;;;;;;8.06;55.92;97954.86;105665;1251;61109;-27
2024/04/19 09:40:21;;;;;;;3.40;1.80;;;;;;;8.11;56.20;97958.03;105646;1254;74305;-27
2024/04/19 09:42:51;;;;;;;2.60;1.80;;;;;;;8.13;56.20;97968.92;105615;1251;73460;-28
2024/04/19 09:45:19;;;;;;;2.50;2.00;;;;;;;8.01;55.53;97966.98;105670;1256;72886;-27
2024/04/19 09:47:53;;;;;;;3.60;2.30;;;;;;;7.82;56.14;97965.71;105746;1252;61087;-28
2024/04/19 09:50:24;;;;;;;3.40;2.40;;;;;;;7.62;57.61;97978.70;105612;1260;62267;-27
2024/04/19 09:52:52;;;;;;;3.30;2.20;;;;;;;7.62;58.35;97983.91;105596;1253;74050;-28
2024/04/19 09:55:25;;;;;;;2.90;2.10;;;;;;;7.57;58.06;97976.54;105300;1260;76744;-28
2024/04/19 09:57:53;;;;;;;5.00;2.30;;;;;;;7.43;58.90;97985.63;105699;1259;72117;-28
2024/04/19 10:00:23;;;;;;;2.70;1.70;;;;;;;7.78;57.74;97985.73;105755;1253;61097;-28
2024/04/19 10:02:55;;;;;;;2.20;1.70;;;;;;;8.36;56.58;97989.70;105686;1253;61122;-28
2024/04/19 10:05:23;;;;;;;2.80;1.90;;;;;;;8.49;56.01;97992.24;105575;1253;76217;-28
2024/04/19 10:07:50;;;;;;;2.70;1.60;;;;;;;8.53;55.89;97992.55;105567;1254;75270;-28
2024/04/19 10:10:18;;;;;;;2.30;1.30;;;;;;;8.72;55.82;97990.55;105735;1254;74655;-27
2024/04/19 10:12:46;;;;;;;2.60;2.20;;;;;;;8.86;54.36;97976.95;105711;1257;62391;-28
2024/04/19 10:15:14;;;;;;;3.00;2.00;;;;;;;8.98;53.64;97986.77;105844;1257;61119;-28
2024/04/19 10:17:42;;;;;;;3.50;2.40;;;;;;;9.18;52.78;97962.09;105516;1253;73928;-28
2024/04/19 10:20:11;;;;;;;2.60;1.90;;;;;;;9.53;52.19;97978.05;105787;1253;74966;-27
2024/04/19 10:22:42;;;;;;;4.20;2.40;;;;;;;9.44;52.77;97980.86;105876;1253;72950;-28
2024/04/19 10:25:10;;;;;;;3.50;2.10;;;;;;;9.27;53.51;97982.92;105637;1259;62609;-28
2024/04/19 10:27:37;;;;;;;3.30;2.20;;;;;;;9.25;51.88;97971.15;105747;1253;61318;-28
2024/04/19 10:30:06;;;;;;;2.00;1.60;;;;;;;9.26;50.96;97976.39;105820;1256;73736;-27
2024/04/19 10:32:42;;;;;;;2.40;1.40;;;;;;;9.42;51.43;97985.71;105709;1253;73215;-28
2024/04/19 10:35:11;;;;;;;2.80;1.50;;;;;;;9.53;50.83;97980.73;105697;1254;72911;-27
2024/04/19 10:37:39;;;;;;;1.40;1.30;;;;;;;9.25;51.16;97984.16;105686;1260;61199;-28
2024/04/19 10:40:07;;;;;;;2.30;1.40;;;;;;;9.34;48.95;97977.95;105717;1257;61247;-28
2024/04/19 10:42:34;;;;;;;2.10;1.20;;;;;;;9.58;49.32;97994.30;105713;1261;75163;-28
2024/04/19 10:45:10;;;;;;;2.30;1.40;;;;;;;10.11;49.95;97999.28;105563;1257;74298;-28
2024/04/19 10:47:39;;;;;;;4.40;1.40;;;;;;;10.72;48.28;97994.65;105637;1254;74871;-28
2024/04/19 10:50:08;;;;;;;1.40;1.30;;;;;;;10.53;47.40;97999.44;105646;1253;61416;-28
2024/04/19 10:52:36;;;;;;;1.80;1.30;;;;;;;9.76;49.31;98001.05;105757;1256;61161;-28
2024/04/19 10:55:04;;;;;;;2.60;1.90;;;;;;;9.68;49.67;97995.43;105860;1257;75282;-28
2024/04/19 10:57:31;;;;;;;2.20;1.70;;;;;;;9.70;51.36;97996.77;105726;1260;74878;-28
2024/04/19 11:00:00;;;;;;;4.10;1.50;;;;;;;9.80;49.66;97995.66;105584;1253;71611;-27
2024/04/19 11:02:29;;;;;;;2.70;1.60;;;;;;;10.27;49.35;98006.60;105821;1257;61196;-27
2024/04/19 11:04:57;;;;;;;2.30;1.50;;;;;;;10.50;49.23;98002.85;105855;1253;61238;-27
2024/04/19 11:07:25;;;;;;;2.20;1.70;;;;;;;10.65;49.94;98013.09;105673;1251;75311;-27
2024/04/19 11:09:52;;;;;;;2.00;1.70;;;;;;;10.62;48.36;98015.25;105478;1253;75034;-27
2024/04/19 11:12:20;;;;;;;2.20;1.80;;;;;;;11.03;47.52;98015.55;105546;1257;74893;-27
2024/04/19 11:14:47;;;;;;;1.60;1.00;;;;;;;10.89;46.77;98017.81;105875;1251;61264;-27
2024/04/19 11:17:15;;;;;;;4.40;1.60;;;;;;;11.11;47.15;98019.67;105775;1253;61262;-27
2024/04/19 11:19:42;;;;;;;1.80;1.40;;;;;;;11.21;46.65;98013.94;105679;1251;74755;-27
2024/04/19 11:22:10;;;;;;;1.10;1.00;;;;;;;11.11;46.42;98020.20;105710;1258;74672;-27
2024/04/19 11:24:39;;;;;;;1.70;1.30;;;;;;;11.28;46.34;98013.84;105572;1254;72727;-27
2024/04/19 11:27:07;;;;;;;1.40;1.20;;;;;;;11.22;46.06;98016.52;105877;1251;61295;-27
2024/04/19 11:29:35;;;;;;;1.80;1.50;;;;;;;11.07;46.04;98015.38;105751;1253;61363;-27
2024/04/19 11:32:05;;;;;;;1.70;1.20;;;;;;;10.88;46.57;98023.31;105606;1253;74832;-27
2024/04/19 11:34:32;;;;;;;3.00;1.20;;;;;;;11.04;46.80;98020.20;105702;1252;74098;-27
2024/04/19 11:37:03;;;;;;;1.20;1.10;;;;;;;10.78;46.96;98022.00;105901;1254;72740;-27
2024/04/19 11:39:31;;;;;;;1.20;1.10;;;;;;;10.55;47.59;98019.06;105858;1253;62250;-27
2024/04/19 11:41:59;;;;;;;1.40;0.90;;;;;;;10.52;49.86;98027.99;105712;1257;62357;-27
2024/04/19 11:44:26;;;;;;;3.60;1.60;;;;;;;10.65;47.67;98030.27;105768;1251;75106;-27
2024/04/19 11:46:54;;;;;;;1.70;1.20;;;;;;;10.62;46.76;98026.27;105607;1257;74567;-27
2024/04/19 11:49:22;;;;;;;1.70;1.20;;;;;;;10.65;46.96;98023.35;105532;1253;72810;-28